Time;durP1;ratioP1;P1;durP2;ratioP2;P2;SDS_P1;SDS_P2;PMS_P1;PMS_P2;Temp;Humidity;BMP_temperature;BMP_pressure;BME280_temperature;BME280_humidity;BME280_pressure;Samples;Min_cycle;Max_cycle;Signal;HPM_P1;HPM_P2
2022/11/03 00:01:55;;;;;;;27.08;5.60;;;;;;;;;;4973470;28;20049;-65
2022/11/03 00:04:22;;;;;;;26.90;4.80;;;;;;;;;;4971028;28;20401;-63
2022/11/03 00:06:50;;;;;;;21.17;5.03;;;;;;;;;;4991389;28;20028;-65
2022/11/03 00:09:17;;;;;;;20.10;4.45;;;;;;;;;;4989812;28;20046;-64
2022/11/03 00:11:44;;;;;;;27.05;3.97;;;;;;;;;;4990770;28;20026;-65
2022/11/03 00:14:10;;;;;;;30.45;4.60;;;;;;;;;;4990597;28;20030;-65
2022/11/03 00:16:37;;;;;;;19.08;3.97;;;;;;;;;;4990974;28;20113;-65
2022/11/03 00:19:03;;;;;;;21.17;4.38;;;;;;;;;;4990338;28;20173;-64
2022/11/03 00:21:29;;;;;;;18.80;4.72;;;;;;;;;;4991372;28;20100;-65
2022/11/03 00:23:55;;;;;;;23.42;3.60;;;;;;;;;;4990228;28;20026;-64
2022/11/03 00:26:23;;;;;;;24.80;3.90;;;;;;;;;;4989905;28;20030;-65
2022/11/03 00:28:50;;;;;;;21.50;4.10;;;;;;;;;;4988813;28;20058;-65
2022/11/03 00:31:19;;;;;;;19.35;3.80;;;;;;;;;;4989953;28;20092;-65
2022/11/03 00:33:45;;;;;;;20.23;4.22;;;;;;;;;;4989235;28;20034;-65
2022/11/03 00:36:12;;;;;;;19.40;4.45;;;;;;;;;;4990837;28;20054;-65
2022/11/03 00:38:38;;;;;;;20.25;4.38;;;;;;;;;;4987502;28;20493;-65
2022/11/03 00:41:05;;;;;;;27.33;4.25;;;;;;;;;;4971170;28;20036;-65
2022/11/03 00:43:32;;;;;;;16.40;3.35;;;;;;;;;;4988456;28;20039;-65
2022/11/03 00:45:59;;;;;;;21.13;3.30;;;;;;;;;;4990198;28;20038;-64
2022/11/03 00:48:28;;;;;;;16.90;3.40;;;;;;;;;;4989463;28;20486;-63
2022/11/03 00:50:54;;;;;;;18.15;4.05;;;;;;;;;;4983801;28;20114;-64
2022/11/03 00:53:20;;;;;;;20.13;3.67;;;;;;;;;;4953823;28;20108;-63
2022/11/03 00:55:49;;;;;;;22.50;4.00;;;;;;;;;;4987591;28;20525;-64
2022/11/03 00:58:15;;;;;;;19.20;4.35;;;;;;;;;;4983604;28;20473;-65
2022/11/03 01:00:41;;;;;;;24.27;4.25;;;;;;;;;;4987267;28;20123;-65
2022/11/03 01:03:07;;;;;;;19.73;4.40;;;;;;;;;;4989036;28;20049;-65
2022/11/03 01:08:18;;;;;;;21.67;4.07;;;;;;;;;;4991228;28;20168;-64
2022/11/03 01:11:42;;;;;;;20.08;4.28;;;;;;;;;;4989419;28;20121;-65
2022/11/03 01:13:30;;;;;;;20.65;3.90;;;;;;;;;;4979047;28;20031;-65
2022/11/03 01:15:57;;;;;;;16.70;3.47;;;;;;;;;;4976661;28;20038;-64
2022/11/03 01:18:23;;;;;;;25.92;4.97;;;;;;;;;;4986524;28;20042;-64
2022/11/03 01:20:56;;;;;;;18.75;3.53;;;;;;;;;;4971162;28;20100;-65
2022/11/03 01:23:22;;;;;;;23.77;4.63;;;;;;;;;;4990167;28;20032;-65
2022/11/03 01:25:48;;;;;;;16.95;3.58;;;;;;;;;;4988079;28;20077;-64
2022/11/03 01:28:14;;;;;;;17.02;3.45;;;;;;;;;;4988750;28;20030;-65
2022/11/03 01:30:40;;;;;;;23.15;4.32;;;;;;;;;;4975102;28;20094;-65
2022/11/03 01:33:06;;;;;;;27.05;4.20;;;;;;;;;;4973260;28;20027;-65
2022/11/03 01:35:32;;;;;;;22.35;4.30;;;;;;;;;;4988607;28;20031;-64
2022/11/03 01:37:58;;;;;;;19.05;3.90;;;;;;;;;;4989365;28;20054;-64
2022/11/03 01:40:24;;;;;;;18.35;3.42;;;;;;;;;;4986973;28;20074;-64
2022/11/03 01:42:50;;;;;;;17.73;3.50;;;;;;;;;;4978496;28;20057;-64
2022/11/03 01:45:16;;;;;;;19.92;3.70;;;;;;;;;;4989186;28;20079;-64
2022/11/03 01:47:43;;;;;;;20.40;4.10;;;;;;;;;;4990250;28;20512;-65
2022/11/03 01:50:17;;;;;;;14.88;3.72;;;;;;;;;;4988462;28;20113;-64
2022/11/03 01:52:48;;;;;;;17.20;3.60;;;;;;;;;;4990210;28;20500;-65
2022/11/03 01:55:19;;;;;;;14.25;4.10;;;;;;;;;;4987857;28;20034;-65
2022/11/03 01:57:53;;;;;;;19.35;4.10;;;;;;;;;;4990114;28;20088;-64
2022/11/03 02:00:19;;;;;;;18.92;3.42;;;;;;;;;;4967714;28;20121;-64
2022/11/03 02:02:45;;;;;;;17.42;3.67;;;;;;;;;;4989950;28;20030;-64
2022/11/03 02:05:12;;;;;;;15.93;3.45;;;;;;;;;;4988797;28;20473;-64
2022/11/03 02:07:41;;;;;;;21.02;4.20;;;;;;;;;;4990197;28;20022;-64
2022/11/03 02:10:08;;;;;;;16.48;3.75;;;;;;;;;;4981710;28;20094;-64
2022/11/03 02:12:35;;;;;;;24.08;5.00;;;;;;;;;;4987146;28;20029;-64
2022/11/03 02:15:05;;;;;;;16.48;3.55;;;;;;;;;;4974429;28;20512;-64
2022/11/03 02:17:32;;;;;;;25.17;4.38;;;;;;;;;;4992383;28;20034;-64
2022/11/03 02:19:58;;;;;;;25.40;4.57;;;;;;;;;;4993896;28;20084;-65
2022/11/03 02:22:43;;;;;;;18.60;3.55;;;;;;;;;;4990642;28;20064;-64
2022/11/03 02:25:18;;;;;;;16.67;4.38;;;;;;;;;;4974296;28;20034;-64
2022/11/03 02:27:45;;;;;;;23.42;4.78;;;;;;;;;;4992798;28;20030;-64
2022/11/03 02:30:11;;;;;;;28.63;4.35;;;;;;;;;;4991772;28;20037;-64
2022/11/03 02:32:46;;;;;;;14.98;3.70;;;;;;;;;;4970454;28;20034;-64
2022/11/03 02:35:33;;;;;;;17.60;4.30;;;;;;;;;;4991416;28;20034;-65
2022/11/03 02:38:00;;;;;;;25.42;5.00;;;;;;;;;;4992508;28;20105;-64
2022/11/03 02:40:31;;;;;;;24.33;4.65;;;;;;;;;;4990679;28;20038;-64
2022/11/03 02:42:57;;;;;;;;;;;;;;;;;;4992624;28;20030;-64
2022/11/03 02:45:25;;;;;;;25.00;4.30;;;;;;;;;;4992237;28;19925;-65
2022/11/03 02:47:52;;;;;;;21.38;3.95;;;;;;;;;;4992534;28;20419;-65
2022/11/03 02:50:20;;;;;;;20.73;3.78;;;;;;;;;;4991099;28;20031;-66
2022/11/03 02:52:47;;;;;;;23.33;4.55;;;;;;;;;;4993345;28;20049;-64
2022/11/03 02:55:28;;;;;;;21.75;3.70;;;;;;;;;;4990209;28;20121;-65
2022/11/03 02:58:12;;;;;;;25.33;3.70;;;;;;;;;;4992065;28;20030;-65
2022/11/03 03:00:42;;;;;;;25.50;5.18;;;;;;;;;;4991724;28;20057;-64
2022/11/03 03:03:11;;;;;;;18.80;3.90;;;;;;;;;;4975214;28;20022;-64
2022/11/03 03:05:39;;;;;;;14.57;3.92;;;;;;;;;;4972722;28;20541;-65
2022/11/03 03:08:07;;;;;;;24.83;3.92;;;;;;;;;;4992714;28;20061;-64
2022/11/03 03:10:36;;;;;;;17.42;3.63;;;;;;;;;;4972920;28;20035;-65
2022/11/03 03:13:03;;;;;;;19.55;3.85;;;;;;;;;;4992197;28;20504;-64
2022/11/03 03:15:40;;;;;;;14.70;3.80;;;;;;;;;;4991271;28;20042;-65
2022/11/03 03:18:29;;;;;;;19.98;4.53;;;;;;;;;;4990717;28;20493;-65
2022/11/03 03:21:02;;;;;;;31.23;6.57;;;;;;;;;;4952106;28;20035;-65
2022/11/03 03:23:35;;;;;;;21.92;5.20;;;;;;;;;;4974384;28;20367;-65
2022/11/03 03:26:08;;;;;;;21.77;4.07;;;;;;;;;;4991491;28;20038;-65
2022/11/03 03:28:41;;;;;;;18.40;3.95;;;;;;;;;;4990776;28;20180;-66
2022/11/03 03:31:09;;;;;;;20.67;3.50;;;;;;;;;;4990128;28;20105;-66
2022/11/03 03:33:36;;;;;;;25.27;4.45;;;;;;;;;;4993161;28;20425;-66
2022/11/03 03:36:04;;;;;;;21.20;4.13;;;;;;;;;;4993845;28;20189;-68
2022/11/03 03:38:33;;;;;;;20.42;3.90;;;;;;;;;;4992099;28;20035;-66
2022/11/03 03:41:01;;;;;;;13.90;3.55;;;;;;;;;;4979862;28;20138;-68
2022/11/03 03:43:28;;;;;;;20.38;4.13;;;;;;;;;;4986510;28;20044;-65
2022/11/03 03:45:55;;;;;;;16.95;3.60;;;;;;;;;;4993385;28;20105;-65
2022/11/03 03:48:22;;;;;;;17.27;3.28;;;;;;;;;;4992664;28;20026;-66
2022/11/03 03:50:48;;;;;;;18.80;3.53;;;;;;;;;;4992992;28;20034;-68
2022/11/03 03:53:14;;;;;;;16.38;3.40;;;;;;;;;;4975582;28;20035;-68
2022/11/03 03:55:45;;;;;;;19.60;4.07;;;;;;;;;;4989988;28;20019;-65
2022/11/03 03:58:12;;;;;;;21.88;4.05;;;;;;;;;;4993552;28;20046;-65
2022/11/03 04:00:41;;;;;;;22.65;4.43;;;;;;;;;;4985895;28;20033;-67
2022/11/03 04:03:15;;;;;;;19.50;3.45;;;;;;;;;;4989551;28;20066;-64
2022/11/03 04:05:41;;;;;;;19.17;3.78;;;;;;;;;;4989645;28;20022;-64
2022/11/03 04:08:07;;;;;;;16.17;3.67;;;;;;;;;;4989539;28;20034;-65
2022/11/03 04:10:33;;;;;;;20.38;3.42;;;;;;;;;;4989589;28;20042;-65
2022/11/03 04:24:01;;;;;;;20.17;3.17;;;;;;;;;;4988850;28;20057;-65
2022/11/03 04:26:28;;;;;;;13.93;3.95;;;;;;;;;;4990073;28;20779;-65
2022/11/03 04:28:55;;;;;;;21.63;3.50;;;;;;;;;;4987073;28;20073;-65
2022/11/03 04:31:21;;;;;;;21.13;4.55;;;;;;;;;;4987798;28;20030;-67
2022/11/03 04:33:47;;;;;;;18.58;3.35;;;;;;;;;;4976616;28;20478;-65
2022/11/03 04:36:18;;;;;;;17.92;3.42;;;;;;;;;;4991174;28;20042;-66
2022/11/03 04:38:44;;;;;;;;;;;;;;;;;;4987127;28;20053;-65
2022/11/03 04:41:21;;;;;;;18.48;3.83;;;;;;;;;;4969328;28;19909;-65
2022/11/03 04:43:48;;;;;;;16.90;3.30;;;;;;;;;;4987854;28;20023;-65
2022/11/03 04:46:23;;;;;;;21.33;4.15;;;;;;;;;;4971332;28;20038;-65
2022/11/03 04:48:49;;;;;;;14.57;3.80;;;;;;;;;;4985399;28;20482;-64
2022/11/03 04:51:17;;;;;;;23.33;4.85;;;;;;;;;;4989092;28;20129;-67
2022/11/03 04:53:58;;;;;;;20.75;3.55;;;;;;;;;;4988271;28;20046;-65
2022/11/03 04:56:25;;;;;;;14.52;3.60;;;;;;;;;;4973869;28;20050;-67
2022/11/03 04:58:51;;;;;;;20.13;4.07;;;;;;;;;;4985317;28;20660;-65
2022/11/03 05:01:20;;;;;;;16.70;3.25;;;;;;;;;;4986240;28;20038;-64
2022/11/03 05:03:48;;;;;;;14.27;3.90;;;;;;;;;;4988464;28;20035;-64
2022/11/03 05:06:15;;;;;;;20.73;3.72;;;;;;;;;;4976862;28;20034;-65
2022/11/03 05:08:42;;;;;;;18.58;5.00;;;;;;;;;;4989857;28;20112;-64
2022/11/03 05:11:28;;;;;;;21.17;3.80;;;;;;;;;;4989091;28;20113;-65
2022/11/03 05:13:57;;;;;;;16.88;3.55;;;;;;;;;;4975388;28;20038;-65
2022/11/03 05:16:23;;;;;;;16.02;3.67;;;;;;;;;;4983749;28;20035;-64
2022/11/03 05:18:50;;;;;;;16.83;3.53;;;;;;;;;;4978446;28;20126;-65
2022/11/03 05:21:18;;;;;;;16.77;3.97;;;;;;;;;;4969996;28;20031;-64
2022/11/03 05:23:46;;;;;;;17.65;3.58;;;;;;;;;;4971579;28;20163;-65
2022/11/03 05:26:16;;;;;;;13.15;3.10;;;;;;;;;;4987277;28;20081;-65
2022/11/03 05:28:44;;;;;;;20.67;3.77;;;;;;;;;;4988886;28;20042;-65
2022/11/03 05:31:20;;;;;;;17.35;3.67;;;;;;;;;;4990168;28;20058;-64
2022/11/03 05:33:48;;;;;;;17.00;3.15;;;;;;;;;;4990280;28;20084;-65
2022/11/03 05:36:16;;;;;;;16.40;3.40;;;;;;;;;;4990308;28;20030;-65
2022/11/03 05:38:42;;;;;;;13.70;3.88;;;;;;;;;;4986451;28;20058;-65
2022/11/03 05:41:16;;;;;;;11.80;3.55;;;;;;;;;;4990246;28;20073;-65
2022/11/03 05:43:42;;;;;;;14.68;3.10;;;;;;;;;;4992591;28;20074;-65
2022/11/03 05:46:10;;;;;;;15.35;3.95;;;;;;;;;;4994341;28;20057;-64
2022/11/03 05:48:43;;;;;;;17.05;3.72;;;;;;;;;;4992946;28;20118;-64
2022/11/03 05:51:20;;;;;;;18.73;4.78;;;;;;;;;;4993725;28;20041;-65
2022/11/03 05:53:49;;;;;;;22.30;4.15;;;;;;;;;;4977174;28;20106;-64
2022/11/03 05:56:18;;;;;;;15.07;3.90;;;;;;;;;;4957457;28;20066;-65
2022/11/03 05:58:44;;;;;;;15.00;3.63;;;;;;;;;;4989323;28;20125;-65
2022/11/03 06:01:12;;;;;;;13.48;3.47;;;;;;;;;;4994306;28;20038;-65
2022/11/03 06:03:39;;;;;;;14.40;3.22;;;;;;;;;;4992469;28;20039;-65
2022/11/03 06:06:31;;;;;;;15.40;3.60;;;;;;;;;;4990796;28;20106;-64
2022/11/03 06:08:57;;;;;;;12.65;3.20;;;;;;;;;;4987977;28;20113;-65
2022/11/03 06:11:28;;;;;;;18.50;3.70;;;;;;;;;;4991478;28;20031;-65
2022/11/03 06:13:55;;;;;;;16.27;3.40;;;;;;;;;;4988294;28;20082;-66
2022/11/03 06:16:21;;;;;;;18.83;4.78;;;;;;;;;;4982656;28;20029;-65
2022/11/03 06:18:47;;;;;;;22.45;3.35;;;;;;;;;;4990274;28;20477;-65
2022/11/03 06:21:16;;;;;;;22.27;3.80;;;;;;;;;;4983975;28;21375;-66
2022/11/03 06:23:42;;;;;;;17.17;4.25;;;;;;;;;;4988674;28;20135;-65
2022/11/03 06:26:18;;;;;;;18.98;4.63;;;;;;;;;;4992109;28;20091;-65
2022/11/03 06:28:44;;;;;;;13.57;3.58;;;;;;;;;;4988955;28;20042;-66
2022/11/03 06:31:18;;;;;;;17.17;3.17;;;;;;;;;;4988705;28;20406;-65
2022/11/03 06:33:43;;;;;;;14.35;3.58;;;;;;;;;;4988800;28;20494;-65
2022/11/03 06:36:16;;;;;;;18.77;4.10;;;;;;;;;;4992594;28;20092;-65
2022/11/03 06:38:42;;;;;;;20.45;3.83;;;;;;;;;;4987268;28;20023;-65
2022/11/03 06:41:17;;;;;;;18.73;4.68;;;;;;;;;;4984210;28;20039;-65
2022/11/03 06:43:44;;;;;;;17.05;3.25;;;;;;;;;;4978018;28;20026;-65
2022/11/03 06:46:25;;;;;;;21.63;4.90;;;;;;;;;;4988850;28;20158;-65
2022/11/03 06:48:53;;;;;;;19.95;4.57;;;;;;;;;;4992258;28;20022;-65
2022/11/03 06:51:21;;;;;;;14.43;3.58;;;;;;;;;;4992616;28;20503;-68
2022/11/03 06:53:47;;;;;;;17.63;4.00;;;;;;;;;;4992369;28;20032;-65
2022/11/03 06:56:19;;;;;;;15.20;4.30;;;;;;;;;;4988626;28;20049;-65
2022/11/03 06:58:47;;;;;;;14.20;3.40;;;;;;;;;;4992082;28;20555;-65
2022/11/03 07:01:25;;;;;;;17.48;4.38;;;;;;;;;;4990322;28;20041;-65
2022/11/03 07:03:56;;;;;;;18.15;3.80;;;;;;;;;;4967991;28;20042;-65
2022/11/03 07:06:26;;;;;;;20.80;4.32;;;;;;;;;;4973993;28;20473;-65
2022/11/03 07:08:56;;;;;;;27.23;4.22;;;;;;;;;;4983893;28;20034;-65
2022/11/03 07:11:22;;;;;;;21.40;4.60;;;;;;;;;;4991865;28;20034;-65
2022/11/03 07:13:52;;;;;;;19.35;4.70;;;;;;;;;;4988568;28;20461;-65
2022/11/03 07:16:24;;;;;;;14.23;3.35;;;;;;;;;;4986183;28;20042;-65
2022/11/03 07:18:50;;;;;;;16.70;4.03;;;;;;;;;;4987644;28;20567;-64
2022/11/03 07:21:33;;;;;;;14.73;3.42;;;;;;;;;;4982073;28;20049;-65
2022/11/03 07:24:01;;;;;;;16.55;3.33;;;;;;;;;;4984486;28;20066;-65
2022/11/03 07:26:27;;;;;;;18.27;3.85;;;;;;;;;;4986531;28;20026;-65
2022/11/03 07:28:53;;;;;;;20.80;3.90;;;;;;;;;;4986500;28;20034;-65
2022/11/03 07:31:20;;;;;;;16.05;3.22;;;;;;;;;;4987906;28;20046;-64
2022/11/03 07:33:46;;;;;;;18.15;3.80;;;;;;;;;;4986451;28;20081;-65
2022/11/03 07:36:17;;;;;;;18.67;3.55;;;;;;;;;;4987068;28;20077;-65
2022/11/03 07:38:44;;;;;;;17.05;3.50;;;;;;;;;;4970015;28;20366;-65
2022/11/03 07:41:14;;;;;;;15.73;3.50;;;;;;;;;;4988310;28;20034;-65
2022/11/03 07:43:40;;;;;;;16.02;3.40;;;;;;;;;;4988149;28;20037;-64
2022/11/03 07:46:14;;;;;;;21.05;4.43;;;;;;;;;;4984033;28;20066;-65
2022/11/03 07:48:45;;;;;;;16.52;3.55;;;;;;;;;;4984662;28;20034;-64
2022/11/03 07:51:29;;;;;;;15.18;4.05;;;;;;;;;;4986158;28;20037;-64
2022/11/03 07:53:57;;;;;;;19.15;4.82;;;;;;;;;;4985828;28;20389;-65
2022/11/03 07:56:23;;;;;;;18.65;4.60;;;;;;;;;;4984583;28;20092;-65
2022/11/03 07:58:51;;;;;;;17.45;4.30;;;;;;;;;;4983561;28;20031;-65
2022/11/03 08:01:29;;;;;;;15.63;3.78;;;;;;;;;;4984123;28;20053;-66
2022/11/03 08:03:58;;;;;;;22.35;4.97;;;;;;;;;;4983115;28;20061;-65
2022/11/03 08:06:24;;;;;;;14.43;3.50;;;;;;;;;;4980051;28;20038;-65
2022/11/03 08:08:50;;;;;;;16.17;4.22;;;;;;;;;;4987549;28;20492;-65
2022/11/03 08:11:16;;;;;;;21.02;4.13;;;;;;;;;;4985196;28;21499;-66
2022/11/03 08:13:42;;;;;;;17.77;4.30;;;;;;;;;;4986072;28;20136;-65
2022/11/03 08:16:08;;;;;;;16.08;3.80;;;;;;;;;;4982112;28;20039;-65
2022/11/03 08:18:35;;;;;;;16.83;3.75;;;;;;;;;;4981850;28;20629;-65
2022/11/03 08:21:01;;;;;;;16.33;3.78;;;;;;;;;;4981658;28;20042;-67
2022/11/03 08:23:28;;;;;;;15.10;3.53;;;;;;;;;;4967702;28;20089;-65
2022/11/03 08:25:54;;;;;;;18.40;4.00;;;;;;;;;;4978109;28;20118;-65
2022/11/03 08:28:20;;;;;;;16.00;4.95;;;;;;;;;;4967792;28;20065;-65
2022/11/03 08:30:46;;;;;;;19.35;3.63;;;;;;;;;;4984088;28;20014;-65
2022/11/03 08:33:12;;;;;;;19.30;4.20;;;;;;;;;;4983588;28;20027;-65
2022/11/03 08:35:38;;;;;;;16.70;4.43;;;;;;;;;;4985552;28;20474;-64
2022/11/03 08:38:04;;;;;;;17.13;3.63;;;;;;;;;;4980834;28;20038;-64
2022/11/03 08:40:30;;;;;;;23.15;3.90;;;;;;;;;;4989779;28;20023;-63
2022/11/03 08:42:56;;;;;;;25.17;3.42;;;;;;;;;;4987201;28;20026;-64
2022/11/03 08:45:23;;;;;;;14.75;4.07;;;;;;;;;;4983546;28;20438;-64
2022/11/03 08:47:48;;;;;;;17.30;3.70;;;;;;;;;;4980937;28;20031;-64
2022/11/03 08:50:15;;;;;;;19.13;3.55;;;;;;;;;;4979690;28;20413;-64
2022/11/03 08:52:41;;;;;;;16.15;4.07;;;;;;;;;;4978662;28;20023;-63
2022/11/03 08:55:07;;;;;;;16.80;3.88;;;;;;;;;;4988120;28;20041;-67
2022/11/03 08:57:33;;;;;;;21.00;3.92;;;;;;;;;;4989005;28;20038;-64
2022/11/03 08:59:59;;;;;;;17.08;3.50;;;;;;;;;;4991404;28;20026;-65
2022/11/03 09:02:25;;;;;;;14.98;3.55;;;;;;;;;;4990051;28;20034;-65
2022/11/03 09:04:51;;;;;;;15.98;3.80;;;;;;;;;;4989219;28;20042;-66
2022/11/03 09:07:17;;;;;;;20.70;4.47;;;;;;;;;;4990304;28;20470;-65
2022/11/03 09:09:43;;;;;;;18.35;3.35;;;;;;;;;;4989326;28;20061;-66
2022/11/03 09:12:09;;;;;;;14.85;3.60;;;;;;;;;;4990359;28;20023;-64
2022/11/03 09:14:35;;;;;;;18.88;3.40;;;;;;;;;;4987845;28;20089;-64
2022/11/03 09:17:01;;;;;;;16.02;3.20;;;;;;;;;;4989368;28;20066;-64
2022/11/03 09:19:27;;;;;;;18.35;3.70;;;;;;;;;;4972907;28;20500;-64
2022/11/03 09:21:53;;;;;;;19.55;4.28;;;;;;;;;;4984441;28;20141;-64
2022/11/03 09:24:19;;;;;;;16.88;3.65;;;;;;;;;;4985072;28;20064;-64
2022/11/03 09:26:45;;;;;;;17.27;4.07;;;;;;;;;;4990653;28;20121;-64
2022/11/03 09:29:11;;;;;;;21.48;4.35;;;;;;;;;;4972532;28;20456;-64
2022/11/03 09:31:37;;;;;;;22.70;4.25;;;;;;;;;;4990431;28;20022;-66
2022/11/03 09:34:03;;;;;;;16.60;3.90;;;;;;;;;;4990709;28;20034;-66
2022/11/03 09:36:29;;;;;;;18.33;4.03;;;;;;;;;;4983618;28;20030;-65
2022/11/03 09:38:55;;;;;;;22.75;4.00;;;;;;;;;;4988770;28;20037;-66
2022/11/03 09:41:21;;;;;;;22.85;4.05;;;;;;;;;;4990481;28;20081;-66
2022/11/03 09:43:48;;;;;;;16.40;3.22;;;;;;;;;;4990377;28;20058;-65
2022/11/03 09:46:15;;;;;;;17.38;3.75;;;;;;;;;;4990146;28;20494;-65
2022/11/03 09:48:41;;;;;;;16.50;3.58;;;;;;;;;;4988861;28;20031;-65
2022/11/03 09:51:13;;;;;;;19.08;3.83;;;;;;;;;;4990339;28;20500;-65
2022/11/03 09:53:40;;;;;;;16.75;3.85;;;;;;;;;;4989682;28;20023;-65
2022/11/03 09:56:06;;;;;;;13.25;3.30;;;;;;;;;;4988578;28;20042;-66
2022/11/03 09:58:33;;;;;;;11.40;3.13;;;;;;;;;;4989910;28;20034;-67
2022/11/03 10:01:00;;;;;;;20.73;4.22;;;;;;;;;;4987517;28;20060;-66
2022/11/03 10:03:26;;;;;;;15.57;3.08;;;;;;;;;;4989366;28;20066;-65
2022/11/03 10:05:52;;;;;;;19.67;3.90;;;;;;;;;;4989792;28;20114;-66
2022/11/03 10:08:25;;;;;;;13.25;3.38;;;;;;;;;;4989767;28;20066;-66
2022/11/03 10:10:51;;;;;;;17.75;3.47;;;;;;;;;;4988581;28;20490;-65
2022/11/03 10:13:23;;;;;;;15.07;3.67;;;;;;;;;;4986801;28;20100;-65
2022/11/03 10:15:49;;;;;;;22.73;3.58;;;;;;;;;;4989726;28;20026;-64
2022/11/03 10:18:17;;;;;;;14.32;3.22;;;;;;;;;;4989378;28;20058;-66
2022/11/03 10:20:44;;;;;;;14.63;3.63;;;;;;;;;;4988919;28;20034;-64
2022/11/03 10:23:10;;;;;;;14.88;2.85;;;;;;;;;;4989571;28;20045;-65
2022/11/03 10:25:38;;;;;;;17.85;3.60;;;;;;;;;;4989836;28;20031;-64
2022/11/03 10:28:14;;;;;;;15.05;3.30;;;;;;;;;;4990032;28;20030;-65
2022/11/03 10:30:53;;;;;;;13.73;3.50;;;;;;;;;;4991564;28;20121;-64
2022/11/03 10:33:29;;;;;;;11.38;2.78;;;;;;;;;;4992683;28;20049;-66
2022/11/03 10:35:56;;;;;;;20.65;4.40;;;;;;;;;;4992859;28;20058;-64
2022/11/03 10:38:26;;;;;;;17.17;3.20;;;;;;;;;;4987514;28;20117;-64
2022/11/03 10:40:52;;;;;;;13.30;3.05;;;;;;;;;;4989697;28;20397;-65
2022/11/03 10:43:19;;;;;;;16.75;3.47;;;;;;;;;;4992889;28;20377;-65
2022/11/03 10:45:45;;;;;;;11.75;4.43;;;;;;;;;;4993584;28;20073;-65
2022/11/03 10:48:11;;;;;;;16.27;3.00;;;;;;;;;;4989884;28;20125;-65
2022/11/03 10:50:39;;;;;;;13.98;3.53;;;;;;;;;;4984473;28;20113;-64
2022/11/03 10:53:06;;;;;;;14.95;3.05;;;;;;;;;;4990569;28;20034;-65
2022/11/03 10:55:32;;;;;;;12.38;3.00;;;;;;;;;;4985496;28;20046;-65
2022/11/03 10:57:58;;;;;;;13.18;3.17;;;;;;;;;;4983628;28;20045;-64
2022/11/03 11:00:24;;;;;;;15.68;3.65;;;;;;;;;;4984660;28;20512;-65
2022/11/03 11:02:55;;;;;;;13.82;3.00;;;;;;;;;;4988029;28;20049;-65
2022/11/03 11:05:22;;;;;;;25.73;4.05;;;;;;;;;;4984909;28;20049;-64
2022/11/03 11:07:50;;;;;;;11.02;2.97;;;;;;;;;;4986166;28;20617;-65
2022/11/03 11:10:17;;;;;;;13.25;3.10;;;;;;;;;;4987438;28;20080;-65
2022/11/03 11:13:02;;;;;;;11.23;2.70;;;;;;;;;;4987250;28;20037;-65
2022/11/03 11:15:34;;;;;;;12.18;2.90;;;;;;;;;;4985587;28;20058;-64
2022/11/03 11:18:00;;;;;;;13.13;2.67;;;;;;;;;;4988406;28;20493;-64
2022/11/03 11:20:29;;;;;;;13.35;2.63;;;;;;;;;;4980250;28;20042;-65
2022/11/03 11:22:55;;;;;;;20.48;3.08;;;;;;;;;;4984898;28;20478;-64
2022/11/03 11:25:41;;;;;;;9.45;3.20;;;;;;;;;;4987662;28;20022;-65
2022/11/03 11:28:11;;;;;;;8.35;2.70;;;;;;;;;;4985388;28;20034;-64
2022/11/03 11:30:58;;;;;;;12.35;2.90;;;;;;;;;;4981933;28;20023;-65
2022/11/03 11:33:25;;;;;;;10.10;2.60;;;;;;;;;;4988286;28;20030;-65
2022/11/03 11:35:51;;;;;;;15.77;2.80;;;;;;;;;;4985538;28;20117;-65
2022/11/03 11:38:35;;;;;;;12.93;2.90;;;;;;;;;;4989289;28;20145;-64
2022/11/03 11:41:01;;;;;;;11.57;2.90;;;;;;;;;;4985566;28;20026;-65
2022/11/03 11:43:27;;;;;;;12.48;2.67;;;;;;;;;;4976184;28;20023;-65
2022/11/03 11:46:12;;;;;;;10.77;2.65;;;;;;;;;;4970999;28;20041;-65
2022/11/03 11:48:38;;;;;;;9.95;3.00;;;;;;;;;;4975441;28;20115;-65
2022/11/03 11:51:08;;;;;;;16.23;2.80;;;;;;;;;;4980993;28;20041;-65
2022/11/03 11:53:39;;;;;;;13.57;3.37;;;;;;;;;;4987534;28;20034;-65
2022/11/03 11:56:08;;;;;;;7.25;2.25;;;;;;;;;;4986720;28;20034;-65
2022/11/03 11:58:40;;;;;;;10.68;2.45;;;;;;;;;;4981576;28;20066;-64
2022/11/03 12:01:18;;;;;;;11.38;2.70;;;;;;;;;;4983924;28;20085;-66
2022/11/03 12:03:45;;;;;;;9.68;2.83;;;;;;;;;;4985722;28;20046;-64
2022/11/03 12:06:14;;;;;;;8.98;2.63;;;;;;;;;;4987132;28;20472;-64
2022/11/03 12:08:41;;;;;;;10.73;2.65;;;;;;;;;;4979707;28;20501;-64
2022/11/03 12:11:08;;;;;;;10.13;2.50;;;;;;;;;;4978830;28;20030;-65
2022/11/03 12:13:46;;;;;;;15.45;2.65;;;;;;;;;;4987585;28;20018;-64
2022/11/03 12:16:28;;;;;;;9.95;3.00;;;;;;;;;;4986390;28;20034;-64
2022/11/03 12:18:55;;;;;;;10.88;2.80;;;;;;;;;;4985145;28;20026;-64
2022/11/03 12:21:39;;;;;;;10.10;2.55;;;;;;;;;;4986951;28;20029;-64
2022/11/03 12:24:24;;;;;;;6.38;1.90;;;;;;;;;;4987819;28;20038;-64
2022/11/03 12:26:50;;;;;;;9.88;2.63;;;;;;;;;;4989815;28;20117;-67
2022/11/03 12:29:16;;;;;;;8.80;2.63;;;;;;;;;;4983058;28;20031;-65
2022/11/03 12:31:42;;;;;;;12.88;3.10;;;;;;;;;;4965178;28;20029;-64
2022/11/03 12:34:08;;;;;;;10.40;2.75;;;;;;;;;;4963547;28;20034;-64
2022/11/03 12:36:34;;;;;;;9.52;2.15;;;;;;;;;;4992012;28;20025;-64
2022/11/03 12:39:00;;;;;;;9.93;2.33;;;;;;;;;;4991645;28;20085;-66
2022/11/03 12:41:26;;;;;;;6.65;2.30;;;;;;;;;;4977888;28;20038;-66
2022/11/03 12:43:54;;;;;;;13.32;2.50;;;;;;;;;;4985837;28;20572;-64
2022/11/03 12:46:21;;;;;;;8.68;2.65;;;;;;;;;;4988424;28;20037;-64
2022/11/03 12:48:47;;;;;;;6.75;2.40;;;;;;;;;;4991540;28;20034;-66
2022/11/03 12:51:14;;;;;;;9.85;2.65;;;;;;;;;;4986412;28;20094;-68
2022/11/03 12:53:40;;;;;;;13.63;2.83;;;;;;;;;;4992148;28;20023;-64
2022/11/03 12:56:07;;;;;;;7.82;2.92;;;;;;;;;;4988575;28;20042;-64
2022/11/03 12:58:33;;;;;;;8.60;2.17;;;;;;;;;;4991005;28;20069;-65
2022/11/03 13:00:59;;;;;;;11.77;2.65;;;;;;;;;;4990679;28;20371;-65
2022/11/03 13:03:25;;;;;;;10.48;2.58;;;;;;;;;;4989903;28;20034;-65
2022/11/03 13:05:51;;;;;;;11.35;2.90;;;;;;;;;;4973462;28;20505;-65
2022/11/03 13:08:17;;;;;;;6.85;1.98;;;;;;;;;;4990111;28;20030;-65
2022/11/03 13:10:43;;;;;;;9.48;2.70;;;;;;;;;;4990296;28;20493;-65
2022/11/03 13:13:09;;;;;;;7.95;2.20;;;;;;;;;;4990960;28;20030;-65
2022/11/03 13:15:36;;;;;;;8.82;3.50;;;;;;;;;;4990075;28;20117;-66
2022/11/03 13:18:04;;;;;;;6.88;2.10;;;;;;;;;;4972470;28;20031;-66
2022/11/03 13:20:30;;;;;;;12.93;2.30;;;;;;;;;;4980675;28;20094;-65
2022/11/03 13:22:56;;;;;;;9.18;2.53;;;;;;;;;;4988421;28;20412;-65
2022/11/03 13:25:23;;;;;;;7.65;2.63;;;;;;;;;;4990591;28;20031;-65
2022/11/03 13:27:52;;;;;;;12.38;2.85;;;;;;;;;;4972430;28;20026;-65
2022/11/03 13:30:18;;;;;;;15.77;2.95;;;;;;;;;;4990961;28;20512;-65
2022/11/03 13:32:44;;;;;;;9.40;2.75;;;;;;;;;;4989916;28;20050;-65
2022/11/03 13:35:11;;;;;;;8.23;2.40;;;;;;;;;;4989939;28;20081;-65
2022/11/03 13:37:37;;;;;;;10.40;2.67;;;;;;;;;;4996475;28;20034;-65
2022/11/03 13:40:03;;;;;;;6.75;2.25;;;;;;;;;;5000034;28;20081;-65
2022/11/03 13:42:29;;;;;;;10.18;3.03;;;;;;;;;;4977001;28;20041;-65
2022/11/03 13:44:56;;;;;;;9.50;3.10;;;;;;;;;;5007079;28;20034;-65
2022/11/03 13:47:22;;;;;;;7.22;2.17;;;;;;;;;;4954429;28;20430;-65
2022/11/03 13:49:51;;;;;;;10.10;2.45;;;;;;;;;;4954352;28;20461;-65
2022/11/03 13:52:17;;;;;;;12.30;2.40;;;;;;;;;;4989189;28;20104;-65
2022/11/03 13:54:43;;;;;;;7.72;2.60;;;;;;;;;;4990744;28;20038;-65
2022/11/03 13:57:09;;;;;;;8.25;2.40;;;;;;;;;;4989744;28;20113;-65
2022/11/03 13:59:35;;;;;;;10.60;2.83;;;;;;;;;;4990182;28;20517;-65
2022/11/03 14:02:01;;;;;;;10.30;2.53;;;;;;;;;;4985552;28;20039;-66
2022/11/03 14:04:27;;;;;;;11.63;2.90;;;;;;;;;;4991448;28;20034;-65
2022/11/03 14:06:53;;;;;;;10.40;2.70;;;;;;;;;;4993953;28;20118;-66
2022/11/03 14:09:19;;;;;;;13.25;2.60;;;;;;;;;;4993876;28;20073;-65
2022/11/03 14:14:30;;;;;;;12.18;2.58;;;;;;;;;;4982579;28;20077;-65
2022/11/03 14:16:56;;;;;;;8.90;2.72;;;;;;;;;;4993855;28;20054;-65
2022/11/03 14:19:22;;;;;;;7.35;2.55;;;;;;;;;;4971893;28;20080;-65
2022/11/03 14:21:49;;;;;;;6.75;2.55;;;;;;;;;;4988095;28;20080;-65
2022/11/03 14:24:15;;;;;;;18.23;2.85;;;;;;;;;;4989280;28;20042;-65
2022/11/03 14:26:41;;;;;;;8.48;2.30;;;;;;;;;;4986597;28;20022;-65
2022/11/03 14:29:07;;;;;;;7.53;2.50;;;;;;;;;;4988332;28;20091;-65
2022/11/03 14:31:33;;;;;;;8.73;2.38;;;;;;;;;;4992335;28;20126;-65
2022/11/03 14:34:00;;;;;;;8.40;2.55;;;;;;;;;;4975397;28;20034;-65
2022/11/03 14:36:26;;;;;;;7.57;2.60;;;;;;;;;;4992540;28;20189;-65
2022/11/03 14:38:52;;;;;;;10.50;2.80;;;;;;;;;;4975888;28;20042;-65
2022/11/03 14:44:02;;;;;;;6.93;2.40;;;;;;;;;;4977085;28;21242;-65
2022/11/03 14:46:32;;;;;;;7.38;2.55;;;;;;;;;;4995654;28;20470;-65
2022/11/03 14:49:00;;;;;;;9.07;2.35;;;;;;;;;;4989920;28;20382;-65
2022/11/03 14:51:26;;;;;;;8.00;2.53;;;;;;;;;;4989871;28;20034;-65
2022/11/03 14:53:53;;;;;;;12.07;2.42;;;;;;;;;;4993318;28;20039;-65
2022/11/03 14:56:19;;;;;;;9.68;2.67;;;;;;;;;;4990972;28;20262;-65
2022/11/03 14:58:45;;;;;;;7.10;2.33;;;;;;;;;;4982550;28;20497;-65
2022/11/03 15:01:11;;;;;;;10.98;3.35;;;;;;;;;;4973598;28;20174;-65